createdAt,value
2023-04-16T00:02:53.675Z,98683.59
2023-04-16T00:08:01.397Z,98692.63
2023-04-16T00:17:00.421Z,98694.52
2023-04-16T00:22:04.587Z,98700.45
2023-04-16T00:27:09.058Z,98699.96
2023-04-16T00:32:13.218Z,98699.09
2023-04-16T00:37:17.408Z,98700.33
2023-04-16T00:42:21.702Z,98705.58
2023-04-16T00:47:27.859Z,98712.64
2023-04-16T00:52:32.896Z,98729.30
2023-04-16T00:57:37.089Z,98741.60
2023-04-16T01:02:41.418Z,98747.20
2023-04-16T01:07:45.568Z,98754.21
2023-04-16T01:12:49.673Z,98759.99
2023-04-16T01:17:54.203Z,98762.73
2023-04-16T01:22:58.382Z,98763.13
2023-04-16T01:28:02.359Z,98764.26
2023-04-16T01:33:06.846Z,98752.24
2023-04-16T01:38:11.459Z,98749.88
2023-04-16T01:43:15.500Z,98749.11
2023-04-16T01:48:19.738Z,98752.34
2023-04-16T01:53:24.188Z,98754.66
2023-04-16T01:58:30.413Z,98751.52
2023-04-16T02:03:34.627Z,98746.42
2023-04-16T02:08:39.044Z,98739.03
2023-04-16T02:13:43.136Z,98747.41
2023-04-16T02:18:47.604Z,98749.85
2023-04-16T02:23:52.221Z,98756.91
2023-04-16T02:28:57.164Z,98758.05
2023-04-16T02:34:01.572Z,98756.38
2023-04-16T02:39:05.800Z,98768.80
2023-04-16T02:44:10.493Z,98774.53
2023-04-16T02:49:15.098Z,98777.01
2023-04-16T02:54:19.515Z,98779.60
2023-04-16T02:59:23.980Z,98784.52
2023-04-16T03:04:29.085Z,98792.92
2023-04-16T03:09:33.461Z,98792.85
2023-04-16T03:14:37.620Z,98796.52
2023-04-16T03:19:42.381Z,98804.25
2023-04-16T03:24:46.428Z,98818.23
2023-04-16T03:29:51.113Z,98818.98
2023-04-16T03:34:55.647Z,98829.54
2023-04-16T03:40:00.118Z,98842.41
2023-04-16T03:45:08.962Z,98846.63
2023-04-16T03:50:13.372Z,98843.86
2023-04-16T03:55:18.388Z,98853.80
2023-04-16T04:00:22.857Z,98860.03
2023-04-16T04:05:27.142Z,98865.64
2023-04-16T04:10:32.691Z,98873.10
2023-04-16T04:15:36.684Z,98878.09
2023-04-16T04:20:41.483Z,98880.60
2023-04-16T04:25:46.019Z,98888.36
2023-04-16T04:30:50.783Z,98902.13
2023-04-16T04:35:55.230Z,98909.15
2023-04-16T04:40:59.988Z,98911.86
2023-04-16T04:46:04.144Z,98918.46
2023-04-16T04:54:44.635Z,98916.59
2023-04-16T04:59:52.410Z,98917.88
2023-04-16T05:05:00.410Z,98919.41
2023-04-16T05:10:10.095Z,98929.37
2023-04-16T05:15:18.466Z,98938.81
2023-04-16T05:20:26.378Z,98951.67
2023-04-16T05:25:33.993Z,98960.55
2023-04-16T05:30:41.540Z,98963.23
2023-04-16T05:35:49.016Z,98965.09
2023-04-16T05:40:57.211Z,98974.65
2023-04-16T05:46:05.104Z,98973.91
2023-04-16T05:52:55.900Z,98964.86
2023-04-16T05:58:04.611Z,98968.89
2023-04-16T06:03:12.719Z,98974.27
2023-04-16T06:08:20.967Z,98974.59
2023-04-16T06:13:28.531Z,98980.98
2023-04-16T06:18:35.882Z,98987.05
2023-04-16T06:23:43.288Z,98988.30
2023-04-16T06:28:51.804Z,98991.97
2023-04-16T06:33:59.701Z,99001.38
2023-04-16T06:39:07.708Z,99007.44
2023-04-16T06:44:16.319Z,99009.31
2023-04-16T06:49:24.460Z,99009.21
2023-04-16T06:54:34.031Z,99010.58
2023-04-16T06:59:42.213Z,99017.86
2023-04-16T07:04:49.833Z,99025.00
2023-04-16T07:09:57.500Z,99028.50
2023-04-16T07:15:06.288Z,99031.57
2023-04-16T07:20:15.121Z,99035.00
2023-04-16T07:25:23.155Z,99041.36
2023-04-16T07:30:34.798Z,99045.76
2023-04-16T07:35:42.428Z,99052.79
2023-04-16T07:40:50.633Z,99052.48
2023-04-16T07:45:58.381Z,99057.58
2023-04-16T07:51:06.338Z,99070.91
2023-04-16T07:56:14.083Z,99069.31
2023-04-16T08:01:21.866Z,99074.36
2023-04-16T08:06:29.592Z,99083.42
2023-04-16T08:11:37.093Z,99084.84
2023-04-16T08:16:44.617Z,99085.50
2023-04-16T08:21:52.238Z,99087.34
2023-04-16T08:27:08.034Z,99094.77
2023-04-16T08:32:25.420Z,99095.64
2023-04-16T08:37:32.911Z,99092.02
2023-04-16T08:42:46.950Z,99092.77
2023-04-16T08:53:38.196Z,99102.16
2023-04-16T08:58:48.479Z,99100.25
2023-04-16T09:03:57.355Z,99101.37
2023-04-16T09:09:08.947Z,99101.62
2023-04-16T09:14:17.021Z,99103.33
2023-04-16T09:19:40.410Z,99103.36
2023-04-16T09:24:48.298Z,99096.59
2023-04-16T09:29:56.057Z,99104.15
2023-04-16T09:35:04.921Z,99101.70
2023-04-16T09:40:13.981Z,99105.04
2023-04-16T09:45:21.337Z,99103.63
2023-04-16T09:54:36.852Z,99101.81
2023-04-16T09:59:44.152Z,99107.67
2023-04-16T10:04:53.234Z,99108.55
2023-04-16T10:10:01.420Z,99105.61
2023-04-16T10:15:11.244Z,99102.23
2023-04-16T10:20:19.382Z,99106.29
2023-04-16T10:25:27.719Z,99106.30
2023-04-16T10:30:35.608Z,99103.50
2023-04-16T10:35:55.001Z,99104.65
2023-04-16T10:41:12.806Z,99105.00
2023-04-16T10:46:27.070Z,99106.06
2023-04-16T10:51:36.203Z,99106.05
2023-04-16T10:56:46.083Z,99106.42
2023-04-16T11:01:56.598Z,99108.92
2023-04-16T11:07:17.742Z,99113.06
2023-04-16T11:12:29.296Z,99112.97
2023-04-16T11:17:42.109Z,99111.71
2023-04-16T11:22:49.791Z,99110.40
2023-04-16T11:27:59.494Z,99114.83
2023-04-16T11:33:09.964Z,99117.69
2023-04-16T11:38:19.844Z,99121.17
2023-04-16T11:43:30.471Z,99119.64
2023-04-16T11:48:51.652Z,99124.86
2023-04-16T11:54:00.499Z,99121.13
2023-04-16T11:59:13.363Z,99123.98
2023-04-16T12:04:25.195Z,99124.08
2023-04-16T12:09:32.979Z,99121.16
2023-04-16T12:14:51.219Z,99115.61
2023-04-16T12:20:01.827Z,99119.81
2023-04-16T12:25:13.049Z,99113.52
2023-04-16T12:30:22.674Z,99100.49
2023-04-16T12:35:37.342Z,99098.84
2023-04-16T12:40:44.963Z,99094.61
2023-04-16T12:45:52.753Z,99092.20
2023-04-16T12:51:00.561Z,99092.65
2023-04-16T12:56:08.325Z,99096.87
2023-04-16T13:01:15.835Z,99097.31
2023-04-16T13:06:23.655Z,99093.05
2023-04-16T13:11:31.445Z,99091.91
2023-04-16T13:16:39.084Z,99092.92
2023-04-16T13:21:46.991Z,99087.47
2023-04-16T13:26:55.995Z,99091.45
2023-04-16T13:32:04.051Z,99092.55
2023-04-16T13:37:11.454Z,99088.30
2023-04-16T13:42:19.552Z,99087.84
2023-04-16T13:47:27.247Z,99088.49
2023-04-16T13:52:34.823Z,99087.88
2023-04-16T13:57:42.614Z,99086.30
2023-04-16T14:02:50.125Z,99081.58
2023-04-16T14:07:58.379Z,99077.55
2023-04-16T14:13:05.992Z,99076.94
2023-04-16T14:18:13.366Z,99074.35
2023-04-16T14:23:21.094Z,99073.92
2023-04-16T14:28:29.226Z,99075.96
2023-04-16T14:33:37.284Z,99074.66
2023-04-16T14:38:45.097Z,99076.49
2023-04-16T14:43:53.116Z,99077.96
2023-04-16T14:49:00.745Z,99080.48
2023-04-16T14:54:08.655Z,99079.85
2023-04-16T14:59:16.720Z,99081.20
2023-04-16T15:04:24.418Z,99078.81
2023-04-16T15:09:32.608Z,99083.85
2023-04-16T15:14:40.439Z,99081.61
2023-04-16T15:19:47.891Z,99082.38
2023-04-16T15:24:55.823Z,99078.40
2023-04-16T15:30:03.826Z,99080.16
2023-04-16T15:35:12.519Z,99079.80
2023-04-16T15:40:21.410Z,99085.14
2023-04-16T15:45:28.923Z,99093.05
2023-04-16T15:50:36.643Z,99091.34
2023-04-16T15:55:46.161Z,99090.64
2023-04-16T16:00:54.770Z,99094.95
2023-04-16T16:06:04.950Z,99092.24
2023-04-16T16:11:13.617Z,99095.05
2023-04-16T16:16:22.147Z,99095.80
2023-04-16T16:21:31.154Z,99106.38
2023-04-16T16:26:38.748Z,99108.52
2023-04-16T16:31:46.649Z,99110.98
2023-04-16T16:36:54.266Z,99117.24
2023-04-16T16:42:01.906Z,99119.16
2023-04-16T16:47:09.773Z,99122.71
2023-04-16T16:52:17.800Z,99128.98
2023-04-16T16:57:25.891Z,99132.59
2023-04-16T17:02:34.448Z,99135.27
2023-04-16T17:07:42.812Z,99133.00
2023-04-16T17:12:52.096Z,99138.16
2023-04-16T17:18:00.536Z,99145.84
2023-04-16T17:23:08.028Z,99153.19
2023-04-16T17:28:15.507Z,99156.39
2023-04-16T17:33:23.326Z,99157.82
2023-04-16T17:38:31.205Z,99161.58
2023-04-16T17:43:39.272Z,99164.73
2023-04-16T17:48:48.240Z,99165.40
2023-04-16T17:53:55.928Z,99172.54
2023-04-16T17:59:03.826Z,99171.04
2023-04-16T18:04:12.275Z,99173.23
2023-04-16T18:09:20.401Z,99178.21
2023-04-16T18:14:28.336Z,99183.57
2023-04-16T18:19:36.280Z,99185.52
2023-04-16T18:24:43.793Z,99188.30
2023-04-16T18:29:51.760Z,99197.85
2023-04-16T18:35:02.010Z,99204.15
2023-04-16T18:40:12.562Z,99207.02
2023-04-16T18:45:21.733Z,99207.08
2023-04-16T18:50:30.298Z,99209.61
2023-04-16T18:55:38.207Z,99211.13
2023-04-16T19:00:46.669Z,99212.39
2023-04-16T19:05:54.980Z,99215.35
2023-04-16T19:11:02.383Z,99215.35
2023-04-16T19:16:11.868Z,99215.41
2023-04-16T19:21:19.876Z,99219.20
2023-04-16T19:26:28.352Z,99217.27
2023-04-16T19:31:36.545Z,99213.83
2023-04-16T19:36:46.221Z,99210.79
2023-04-16T19:41:53.405Z,99204.67
2023-04-16T19:47:01.089Z,99205.08
2023-04-16T19:52:09.432Z,99206.48
2023-04-16T19:57:17.450Z,99211.40
2023-04-16T20:02:25.369Z,99208.74
2023-04-16T20:07:33.500Z,99208.59
2023-04-16T20:12:40.893Z,99202.90
2023-04-16T20:17:48.553Z,99197.14
2023-04-16T20:22:55.936Z,99197.75
2023-04-16T20:28:03.323Z,99198.10
2023-04-16T20:33:11.546Z,99193.73
2023-04-16T20:38:24.033Z,99194.99
2023-04-16T20:43:38.942Z,99191.17
2023-04-16T20:48:46.357Z,99186.05
2023-04-16T20:53:53.984Z,99183.61
2023-04-16T20:59:01.499Z,99181.45
2023-04-16T21:04:09.371Z,99179.63
2023-04-16T21:09:17.328Z,99177.56
2023-04-16T21:14:24.566Z,99175.67
2023-04-16T21:19:31.941Z,99177.08
2023-04-16T21:24:39.578Z,99176.19
2023-04-16T21:29:46.797Z,99176.86
2023-04-16T21:34:54.282Z,99175.74
2023-04-16T21:40:01.800Z,99171.42
2023-04-16T21:45:11.997Z,99170.42
2023-04-16T21:50:19.965Z,99174.63
2023-04-16T21:55:28.047Z,99178.18
2023-04-16T22:00:35.852Z,99179.98
2023-04-16T22:05:43.118Z,99181.45
2023-04-16T22:10:50.357Z,99183.46
2023-04-16T22:16:01.552Z,99182.88
2023-04-16T22:21:09.064Z,99185.91
2023-04-16T22:26:16.437Z,99185.19
2023-04-16T22:31:23.572Z,99190.70
2023-04-16T22:36:32.379Z,99191.02
2023-04-16T22:41:40.109Z,99197.58
2023-04-16T22:46:48.122Z,99195.39
2023-04-16T22:51:55.726Z,99192.08
2023-04-16T22:57:03.661Z,99193.07
2023-04-16T23:02:11.040Z,99186.90
2023-04-16T23:07:18.366Z,99186.73
2023-04-16T23:12:26.121Z,99184.15
2023-04-16T23:17:34.263Z,99183.80
2023-04-16T23:22:42.775Z,99183.38
2023-04-16T23:27:49.966Z,99180.28
2023-04-16T23:32:58.376Z,99179.20
2023-04-16T23:38:06.175Z,99180.45
2023-04-16T23:43:13.623Z,99175.99
2023-04-16T23:48:20.788Z,99179.09
2023-04-16T23:53:28.490Z,99180.20
2023-04-16T23:58:35.850Z,99177.17
